Time;durP1;ratioP1;P1;durP2;ratioP2;P2;SDS_P1;SDS_P2;PMS_P1;PMS_P2;Temp;Humidity;BMP_temperature;BMP_pressure;BME280_temperature;BME280_humidity;BME280_pressure;Samples;Min_cycle;Max_cycle;Signal;HPM_P1;HPM_P2
2023/03/24 00:00:20;;;;;;;9.60;2.20;;;;;;;12.68;nan;100360.19;5000949;28;20033;-54
2023/03/24 00:02:47;;;;;;;5.40;2.10;;;;;;;12.65;nan;100348.03;5002543;28;20033;-52
2023/03/24 00:05:18;;;;;;;6.20;2.53;;;;;;;12.70;nan;100345.91;4997828;28;20049;-53
2023/03/24 00:07:44;;;;;;;6.57;2.58;;;;;;;12.73;nan;100350.97;4992872;28;20046;-57
2023/03/24 00:10:17;;;;;;;8.90;3.17;;;;;;;12.76;nan;100347.25;5000960;28;20052;-54
2023/03/24 00:12:46;;;;;;;6.15;2.70;;;;;;;12.74;nan;100346.50;5000059;28;20053;-53
2023/03/24 00:15:14;;;;;;;6.32;2.97;;;;;;;12.74;nan;100336.81;5000895;28;20093;-53
2023/03/24 00:17:40;;;;;;;5.80;2.70;;;;;;;12.76;nan;100334.06;5006323;28;20511;-53
2023/03/24 00:20:14;;;;;;;5.72;2.60;;;;;;;12.79;nan;100339.09;5007733;28;20084;-51
2023/03/24 00:22:49;;;;;;;8.63;3.08;;;;;;;12.80;nan;100330.22;5001852;28;20026;-51
2023/03/24 00:25:22;;;;;;;7.50;3.28;;;;;;;12.78;nan;100327.69;5002950;28;20163;-54
2023/03/24 00:27:50;;;;;;;6.28;2.60;;;;;;;12.81;nan;100326.66;4999615;28;20026;-53
2023/03/24 00:30:18;;;;;;;8.00;3.05;;;;;;;12.81;nan;100316.91;5001457;28;20464;-51
2023/03/24 00:32:45;;;;;;;7.75;2.95;;;;;;;12.79;nan;100310.06;5003077;28;20388;-52
2023/03/24 00:35:12;;;;;;;8.02;3.28;;;;;;;12.73;nan;100314.00;5004085;28;20041;-52
2023/03/24 00:37:40;;;;;;;7.97;3.03;;;;;;;12.71;nan;100315.06;5002483;28;20493;-53
2023/03/24 00:40:11;;;;;;;6.05;2.60;;;;;;;12.67;nan;100314.44;4997902;28;20120;-53
2023/03/24 00:42:38;;;;;;;5.65;2.70;;;;;;;12.69;nan;100295.88;4998964;28;20049;-53
2023/03/24 00:45:05;;;;;;;8.60;3.47;;;;;;;12.70;nan;100308.94;5007802;28;20837;-53
2023/03/24 00:47:35;;;;;;;4.68;2.90;;;;;;;12.70;nan;100295.75;5007503;28;20047;-55
2023/03/24 00:50:03;;;;;;;6.68;2.85;;;;;;;12.69;nan;100294.06;5000018;28;20033;-52
2023/03/24 00:52:32;;;;;;;6.10;2.85;;;;;;;12.66;nan;100283.72;4998516;28;20036;-55
2023/03/24 00:55:00;;;;;;;8.65;3.05;;;;;;;12.67;nan;100287.22;4999757;28;20022;-53
2023/03/24 00:57:28;;;;;;;8.02;3.55;;;;;;;12.66;nan;100286.38;5004319;28;20072;-54
2023/03/24 00:59:56;;;;;;;9.07;3.42;;;;;;;12.66;nan;100278.44;5004111;28;20045;-53
2023/03/24 01:02:24;;;;;;;5.85;2.97;;;;;;;12.65;nan;100282.91;5001482;28;20030;-53
2023/03/24 01:04:58;;;;;;;7.97;3.42;;;;;;;12.65;nan;100272.34;4998063;28;20038;-55
2023/03/24 01:07:26;;;;;;;6.95;3.42;;;;;;;12.65;nan;100268.84;4995706;28;20505;-56
2023/03/24 01:10:00;;;;;;;6.55;3.65;;;;;;;12.62;nan;100261.19;4995039;28;20037;-55
2023/03/24 01:12:35;;;;;;;8.68;3.22;;;;;;;12.62;nan;100254.09;5000663;28;20026;-54
2023/03/24 01:15:04;;;;;;;8.55;3.70;;;;;;;12.63;nan;100241.72;5001529;28;20042;-56
2023/03/24 01:17:31;;;;;;;8.38;3.50;;;;;;;12.66;nan;100241.50;5003968;28;20068;-54
2023/03/24 01:19:57;;;;;;;7.20;3.78;;;;;;;12.69;nan;100243.91;5005335;28;20038;-53
2023/03/24 01:22:28;;;;;;;6.18;2.92;;;;;;;12.72;nan;100241.03;4996482;28;20036;-54
2023/03/24 01:24:53;;;;;;;9.18;3.60;;;;;;;12.67;nan;100232.63;5000148;28;20023;-54
2023/03/24 01:27:19;;;;;;;6.13;3.17;;;;;;;12.68;nan;100233.47;4999983;28;20044;-52
2023/03/24 01:29:44;;;;;;;8.52;3.17;;;;;;;12.69;nan;100229.88;4998803;28;20065;-53
2023/03/24 01:32:10;;;;;;;7.53;3.17;;;;;;;12.69;nan;100238.63;4999158;28;20040;-53
2023/03/24 01:34:35;;;;;;;5.72;3.10;;;;;;;12.69;nan;100225.44;5005015;28;20116;-53
2023/03/24 01:37:01;;;;;;;8.82;3.13;;;;;;;12.70;nan;100229.75;5000188;28;20095;-55
2023/03/24 01:39:27;;;;;;;6.57;3.17;;;;;;;12.70;nan;100229.75;5004084;28;20029;-52
2023/03/24 01:41:52;;;;;;;7.75;3.00;;;;;;;12.65;nan;100226.59;5001784;28;20948;-52
2023/03/24 01:44:34;;;;;;;8.45;3.58;;;;;;;12.62;nan;100221.59;5002874;28;20519;-53
2023/03/24 01:47:00;;;;;;;4.57;2.65;;;;;;;12.62;nan;100216.31;5001863;28;20492;-52
2023/03/24 01:49:36;;;;;;;2.97;1.67;;;;;;;12.61;nan;100211.97;5003765;28;20574;-52
2023/03/24 01:52:06;;;;;;;12.52;4.43;;;;;;;12.61;nan;100209.34;5003747;28;20022;-52
2023/03/24 01:54:40;;;;;;;4.85;2.70;;;;;;;12.61;nan;100214.63;5000755;28;20079;-55
2023/03/24 01:57:35;;;;;;;8.05;3.55;;;;;;;12.63;nan;100207.41;5000946;28;20034;-53
2023/03/24 02:00:05;;;;;;;8.75;3.15;;;;;;;12.58;nan;100199.84;5003576;28;20034;-53
2023/03/24 02:02:34;;;;;;;4.38;2.70;;;;;;;12.57;nan;100202.59;5005461;28;20125;-54
2023/03/24 02:05:04;;;;;;;5.60;2.60;;;;;;;12.56;nan;100201.75;4996346;28;20042;-54
2023/03/24 02:07:38;;;;;;;6.45;3.08;;;;;;;12.55;nan;100194.81;5001500;28;20030;-52
2023/03/24 02:10:09;;;;;;;7.50;3.22;;;;;;;12.55;nan;100188.69;5001727;28;20388;-54
2023/03/24 02:12:35;;;;;;;8.75;2.75;;;;;;;12.57;nan;100186.75;4996443;28;20030;-52
2023/03/24 02:15:03;;;;;;;6.03;2.83;;;;;;;12.59;nan;100179.56;4999822;28;20026;-52
2023/03/24 02:17:53;;;;;;;4.65;2.33;;;;;;;12.60;nan;100175.97;5001815;28;20034;-54
2023/03/24 02:20:56;;;;;;;7.35;3.88;;;;;;;12.58;nan;100178.72;5004101;28;20511;-52
2023/03/24 02:23:37;;;;;;;8.75;3.67;;;;;;;12.57;nan;100173.56;4999778;28;20160;-53
2023/03/24 02:26:25;;;;;;;6.88;3.47;;;;;;;12.58;nan;100168.16;5000276;28;20037;-52
2023/03/24 02:29:02;;;;;;;7.75;3.40;;;;;;;12.59;nan;100161.09;4998356;28;20029;-55
2023/03/24 02:31:52;;;;;;;6.20;2.88;;;;;;;12.60;nan;100149.59;5001800;28;20022;-52
2023/03/24 02:34:23;;;;;;;4.50;2.88;;;;;;;12.61;nan;100136.25;5001173;28;20034;-53
2023/03/24 02:37:20;;;;;;;8.87;3.70;;;;;;;12.64;nan;100129.91;5002528;28;20037;-52
2023/03/24 02:40:12;;;;;;;6.25;2.78;;;;;;;12.64;nan;100130.75;5005483;28;20057;-53
2023/03/24 02:43:10;;;;;;;5.35;2.67;;;;;;;12.66;nan;100122.72;5001090;28;20110;-53
2023/03/24 02:45:47;;;;;;;6.20;3.17;;;;;;;12.68;nan;100109.41;4996756;28;20041;-55
2023/03/24 02:48:18;;;;;;;6.18;3.47;;;;;;;12.68;nan;100104.13;4997474;28;20025;-52
2023/03/24 02:50:49;;;;;;;4.73;3.13;;;;;;;12.69;nan;100082.88;5005487;28;20512;-52
2023/03/24 02:53:43;;;;;;;6.25;2.47;;;;;;;12.66;nan;100083.13;4997758;28;20058;-52
2023/03/24 02:56:15;;;;;;;5.82;2.80;;;;;;;12.64;nan;100071.84;4997725;28;20037;-54
2023/03/24 02:58:58;;;;;;;5.15;3.13;;;;;;;12.75;nan;100074.50;4999712;28;20026;-52
2023/03/24 03:01:59;;;;;;;8.18;4.85;;;;;;;12.77;nan;100071.75;4994028;28;20018;-53
2023/03/24 03:04:48;;;;;;;5.88;3.67;;;;;;;12.76;nan;100081.47;4995924;28;20396;-53
2023/03/24 03:07:20;;;;;;;6.85;3.70;;;;;;;12.85;nan;100084.34;4998682;28;20045;-54
2023/03/24 03:10:18;;;;;;;4.20;2.85;;;;;;;12.73;nan;100076.44;4998914;28;20046;-52
2023/03/24 03:12:47;;;;;;;7.18;2.90;;;;;;;12.73;nan;100081.69;5000060;28;20058;-52
2023/03/24 03:15:20;;;;;;;7.63;2.80;;;;;;;12.75;nan;100069.22;4995867;28;20030;-53
2023/03/24 03:18:01;;;;;;;5.05;2.53;;;;;;;12.78;nan;100066.31;5004852;28;20030;-52
2023/03/24 03:20:33;;;;;;;5.25;2.80;;;;;;;12.77;nan;100067.31;5003489;28;20026;-54
2023/03/24 03:23:09;;;;;;;3.78;2.45;;;;;;;12.79;nan;100049.53;4999328;28;20106;-54
2023/03/24 03:25:41;;;;;;;4.80;2.65;;;;;;;12.81;nan;100044.16;4998256;28;20241;-52
2023/03/24 03:28:10;;;;;;;3.03;1.60;;;;;;;12.81;nan;100046.78;5000368;28;20021;-52
2023/03/24 03:30:43;;;;;;;4.93;2.58;;;;;;;12.81;nan;100037.06;5001112;28;20034;-52
2023/03/24 03:33:23;;;;;;;5.25;2.80;;;;;;;12.84;nan;100036.00;5001669;28;20146;-55
2023/03/24 03:35:52;;;;;;;3.22;1.67;;;;;;;12.85;nan;100028.91;4994762;28;20117;-52
2023/03/24 03:38:18;;;;;;;4.13;2.50;;;;;;;12.83;nan;100020.25;4997507;28;20389;-53
2023/03/24 03:40:50;;;;;;;8.27;3.03;;;;;;;12.84;nan;100021.94;4999043;28;20485;-53
2023/03/24 03:43:16;;;;;;;4.50;2.53;;;;;;;12.82;nan;100027.34;5001652;28;20034;-54
2023/03/24 03:45:41;;;;;;;4.05;2.50;;;;;;;12.84;nan;100030.72;5000084;28;20041;-54
2023/03/24 03:48:07;;;;;;;5.63;2.83;;;;;;;12.86;nan;100022.66;5005527;28;20088;-54
2023/03/24 03:50:33;;;;;;;8.68;3.22;;;;;;;12.86;nan;100017.38;5000702;28;20113;-53
2023/03/24 03:53:00;;;;;;;7.50;2.95;;;;;;;12.85;nan;100015.69;5005171;28;20049;-53
2023/03/24 03:55:26;;;;;;;6.00;2.60;;;;;;;12.86;nan;100017.38;5005341;28;20038;-53
2023/03/24 03:57:53;;;;;;;4.43;2.17;;;;;;;12.86;nan;100022.66;5004123;28;20042;-51
2023/03/24 04:00:21;;;;;;;4.18;2.65;;;;;;;12.86;nan;100020.03;5007045;28;20040;-55
2023/03/24 04:03:17;;;;;;;5.38;2.60;;;;;;;12.86;nan;100009.47;5001437;28;20480;-54
2023/03/24 04:05:50;;;;;;;4.97;2.70;;;;;;;12.84;nan;100006.94;5001905;28;20663;-52
2023/03/24 04:08:24;;;;;;;6.13;2.42;;;;;;;12.84;nan;100009.59;5008300;28;20437;-51
2023/03/24 04:11:17;;;;;;;3.47;2.03;;;;;;;12.84;nan;100006.94;5002932;28;20049;-51
2023/03/24 04:14:08;;;;;;;4.55;2.40;;;;;;;12.81;nan;99997.44;5001165;28;20034;-55
2023/03/24 04:16:46;;;;;;;4.70;2.88;;;;;;;12.81;nan;99994.81;4992442;28;20042;-53
2023/03/24 04:19:31;;;;;;;5.13;2.97;;;;;;;12.81;nan;99994.81;5002607;28;20109;-52
2023/03/24 04:21:59;;;;;;;5.40;2.55;;;;;;;12.83;nan;99983.28;5006506;28;20030;-53
2023/03/24 04:24:41;;;;;;;5.20;2.90;;;;;;;12.85;nan;99987.50;5002546;28;20038;-56
2023/03/24 04:27:45;;;;;;;5.25;2.30;;;;;;;12.86;nan;99990.97;5005957;28;20135;-53
2023/03/24 04:30:29;;;;;;;6.15;2.28;;;;;;;12.84;nan;99985.84;5006066;28;20030;-52
2023/03/24 04:33:02;;;;;;;4.97;2.20;;;;;;;12.86;nan;99983.88;4998299;28;20026;-52
2023/03/24 04:35:35;;;;;;;4.03;2.60;;;;;;;12.87;nan;99979.47;4999364;28;20038;-54
2023/03/24 04:38:07;;;;;;;5.95;2.38;;;;;;;12.88;nan;99978.50;4996049;28;20034;-52
2023/03/24 04:40:35;;;;;;;5.70;2.50;;;;;;;12.88;nan;99971.41;5001885;28;20042;-51
2023/03/24 04:43:06;;;;;;;8.02;3.13;;;;;;;12.90;nan;99966.00;5004648;28;20018;-53
2023/03/24 04:45:36;;;;;;;6.90;3.17;;;;;;;12.88;nan;99962.66;5002928;28;20033;-53
2023/03/24 04:48:05;;;;;;;2.75;1.70;;;;;;;12.87;nan;99961.81;5004208;28;20034;-53
2023/03/24 04:50:42;;;;;;;3.55;2.17;;;;;;;12.86;nan;99956.66;5004862;28;20048;-56
2023/03/24 04:53:08;;;;;;;6.20;2.42;;;;;;;12.84;nan;99946.22;4993714;28;20066;-52
2023/03/24 04:55:36;;;;;;;4.32;2.60;;;;;;;12.83;nan;99943.69;5002492;28;20045;-53
2023/03/24 04:58:02;;;;;;;5.57;2.30;;;;;;;12.84;nan;99942.72;4998925;28;20038;-53
2023/03/24 05:00:30;;;;;;;6.28;3.85;;;;;;;12.81;nan;99938.53;5001258;28;20038;-53
2023/03/24 05:02:56;;;;;;;4.63;3.13;;;;;;;12.80;nan;99919.22;5002442;28;20023;-54
2023/03/24 05:05:21;;;;;;;6.03;3.38;;;;;;;12.79;nan;99922.81;5000781;28;20040;-53
2023/03/24 05:07:48;;;;;;;10.60;2.85;;;;;;;12.80;nan;99916.56;5002338;28;20044;-54
2023/03/24 05:10:14;;;;;;;9.35;3.03;;;;;;;12.82;nan;99913.81;5004543;28;20037;-53
2023/03/24 05:12:40;;;;;;;7.28;3.92;;;;;;;12.82;nan;99911.19;5003502;28;20030;-53
2023/03/24 05:15:06;;;;;;;5.13;2.97;;;;;;;12.83;nan;99914.66;5006879;28;20112;-54
2023/03/24 05:17:31;;;;;;;4.32;2.67;;;;;;;12.83;nan;99919.94;5002752;28;20105;-54
2023/03/24 05:19:57;;;;;;;7.38;3.92;;;;;;;12.82;nan;99908.53;5004993;28;20497;-51
2023/03/24 05:22:22;;;;;;;6.15;3.50;;;;;;;12.81;nan;99910.34;5000965;28;20119;-53
2023/03/24 05:24:47;;;;;;;7.63;3.08;;;;;;;12.81;nan;99898.94;5002790;28;20034;-56
2023/03/24 05:27:13;;;;;;;5.13;3.03;;;;;;;12.84;nan;99892.56;4999575;28;20516;-54
2023/03/24 05:29:38;;;;;;;5.18;3.00;;;;;;;12.85;nan;99889.81;5001378;28;20034;-52
2023/03/24 05:32:04;;;;;;;7.43;3.53;;;;;;;12.84;nan;99892.56;4993933;28;20049;-53
2023/03/24 05:34:29;;;;;;;6.72;3.20;;;;;;;12.84;nan;99896.06;5005675;28;20057;-54
2023/03/24 05:36:55;;;;;;;6.75;2.78;;;;;;;12.84;nan;99892.56;4996979;28;20485;-53
2023/03/24 05:39:21;;;;;;;5.35;3.28;;;;;;;12.83;nan;99891.75;4982394;28;20076;-54
2023/03/24 05:41:46;;;;;;;7.38;3.30;;;;;;;12.87;nan;99892.31;4983089;28;20050;-53
2023/03/24 05:44:11;;;;;;;4.30;3.03;;;;;;;12.86;nan;99885.38;4988344;28;20112;-53
2023/03/24 05:46:37;;;;;;;6.72;3.20;;;;;;;12.84;nan;99887.28;4993034;28;20112;-53
2023/03/24 05:49:03;;;;;;;6.35;4.28;;;;;;;12.81;nan;99876.00;4993011;28;20091;-52
2023/03/24 05:51:28;;;;;;;5.60;3.53;;;;;;;12.84;nan;99872.31;5007173;28;20025;-53
2023/03/24 05:53:53;;;;;;;5.88;3.58;;;;;;;12.86;nan;99866.88;4998761;28;20072;-53
2023/03/24 05:56:19;;;;;;;4.47;2.88;;;;;;;12.91;nan;99867.38;4996407;28;20033;-53
2023/03/24 05:58:44;;;;;;;4.90;3.10;;;;;;;12.96;nan;99873.09;4990962;28;20022;-52
2023/03/24 06:01:10;;;;;;;6.78;3.92;;;;;;;12.96;nan;99870.44;4997729;28;20084;-52
2023/03/24 06:03:37;;;;;;;5.05;3.10;;;;;;;13.01;nan;99862.16;4998090;28;20389;-53
2023/03/24 06:06:07;;;;;;;6.22;3.60;;;;;;;13.05;nan;99868.84;4987204;28;20427;-54
2023/03/24 06:08:33;;;;;;;5.15;2.80;;;;;;;13.08;nan;99866.78;4992026;28;20463;-54
2023/03/24 06:11:01;;;;;;;6.53;3.60;;;;;;;13.10;nan;99867.50;5000207;28;20484;-53
2023/03/24 06:13:28;;;;;;;8.40;4.90;;;;;;;13.14;nan;99860.19;5003667;28;20037;-53
2023/03/24 06:15:57;;;;;;;6.50;3.42;;;;;;;13.20;nan;99866.78;5007446;28;20485;-53
2023/03/24 06:18:25;;;;;;;6.25;3.83;;;;;;;13.20;nan;99861.47;5005800;28;20459;-53
2023/03/24 06:20:55;;;;;;;4.95;2.97;;;;;;;13.21;nan;99860.53;5000103;28;20033;-52
2023/03/24 06:23:26;;;;;;;6.63;3.95;;;;;;;13.23;nan;99861.25;5009355;28;20032;-51
2023/03/24 06:25:57;;;;;;;6.30;3.70;;;;;;;13.24;nan;99858.47;5000933;28;20117;-51
2023/03/24 06:28:24;;;;;;;5.43;3.00;;;;;;;13.27;nan;99858.22;4994129;28;20034;-54
2023/03/24 06:30:57;;;;;;;5.90;3.30;;;;;;;13.30;nan;99854.47;4995961;28;20046;-51
2023/03/24 06:33:24;;;;;;;7.35;4.22;;;;;;;13.32;nan;99849.88;5002000;28;20029;-52
2023/03/24 06:35:53;;;;;;;6.85;3.88;;;;;;;13.37;nan;99841.56;4999474;28;20040;-52
2023/03/24 06:38:19;;;;;;;5.53;3.40;;;;;;;13.38;nan;99837.97;5001141;28;20084;-54
2023/03/24 06:40:44;;;;;;;8.00;4.03;;;;;;;13.41;nan;99838.56;5006591;28;20038;-51
2023/03/24 06:43:10;;;;;;;11.23;4.07;;;;;;;13.47;nan;99844.31;4996479;28;20537;-53
2023/03/24 06:45:38;;;;;;;4.80;3.38;;;;;;;13.50;nan;99836.97;5004307;28;20121;-52
2023/03/24 06:48:04;;;;;;;8.57;3.88;;;;;;;13.53;nan;99842.00;5004892;28;20076;-52
2023/03/24 06:50:31;;;;;;;6.22;3.88;;;;;;;13.61;nan;99840.50;5005639;28;20075;-52
2023/03/24 06:52:58;;;;;;;6.65;3.42;;;;;;;13.64;nan;99825.22;5005342;28;20630;-51
2023/03/24 06:55:23;;;;;;;6.90;3.67;;;;;;;13.68;nan;99828.44;5005852;28;20034;-52
2023/03/24 06:57:49;;;;;;;5.95;3.88;;;;;;;13.69;nan;99833.56;5002650;28;20034;-52
2023/03/24 07:00:15;;;;;;;11.88;3.97;;;;;;;13.75;nan;99829.59;5002658;28;20113;-52
2023/03/24 07:02:41;;;;;;;6.82;3.90;;;;;;;13.78;nan;99820.56;5003625;28;20108;-51
2023/03/24 07:05:09;;;;;;;7.32;3.72;;;;;;;13.81;nan;99817.66;5000980;28;20490;-50
2023/03/24 07:07:36;;;;;;;7.55;3.80;;;;;;;13.85;nan;99803.19;5005426;28;20469;-51
2023/03/24 07:10:02;;;;;;;5.72;4.00;;;;;;;13.92;nan;99809.63;5000856;28;20121;-51
2023/03/24 07:12:28;;;;;;;5.53;3.65;;;;;;;13.96;nan;99804.88;5003097;28;20064;-51
2023/03/24 07:14:54;;;;;;;5.30;3.83;;;;;;;13.98;nan;99805.59;5004448;28;20397;-51
2023/03/24 07:17:20;;;;;;;5.95;4.22;;;;;;;14.00;nan;99811.59;5009149;28;20121;-51
2023/03/24 07:19:46;;;;;;;6.00;3.50;;;;;;;14.02;nan;99799.91;5007959;28;20647;-51
2023/03/24 07:22:11;;;;;;;6.97;3.85;;;;;;;14.05;nan;99797.97;5005348;28;20128;-57
2023/03/24 07:24:37;;;;;;;5.78;3.67;;;;;;;14.06;nan;99799.66;5012390;28;20604;-51
2023/03/24 07:27:03;;;;;;;8.25;4.35;;;;;;;14.07;nan;99796.03;5007579;28;20038;-52
2023/03/24 07:29:28;;;;;;;6.80;4.18;;;;;;;14.08;nan;99797.69;5009728;28;20481;-51
2023/03/24 07:31:57;;;;;;;6.40;3.92;;;;;;;14.10;nan;99790.47;5000977;28;20030;-53
2023/03/24 07:34:27;;;;;;;6.45;3.72;;;;;;;14.10;nan;99793.94;5002305;28;20037;-54
2023/03/24 07:36:52;;;;;;;9.05;4.07;;;;;;;14.12;nan;99794.66;5008135;28;20473;-53
2023/03/24 07:39:19;;;;;;;6.57;3.33;;;;;;;14.14;nan;99795.34;5012667;28;20064;-55
2023/03/24 07:41:45;;;;;;;9.68;4.22;;;;;;;14.15;nan;99791.75;5006615;28;20061;-53
2023/03/24 07:44:11;;;;;;;8.10;3.97;;;;;;;14.16;nan;99790.78;5007798;28;20652;-54
2023/03/24 07:46:36;;;;;;;9.70;4.65;;;;;;;14.18;nan;99791.47;5013524;28;20033;-55
2023/03/24 07:49:02;;;;;;;6.07;3.80;;;;;;;14.16;nan;99793.41;5003789;28;20034;-53
2023/03/24 07:51:28;;;;;;;5.15;3.30;;;;;;;14.18;nan;99793.28;5004347;28;20042;-55
2023/03/24 07:53:54;;;;;;;6.90;3.67;;;;;;;14.18;nan;99788.84;5009573;28;20126;-53
2023/03/24 07:56:20;;;;;;;8.93;3.42;;;;;;;14.22;nan;99784.09;5006711;28;20061;-51
2023/03/24 07:58:46;;;;;;;5.18;3.20;;;;;;;14.31;nan;99787.75;5011047;28;20030;-51
2023/03/24 08:01:12;;;;;;;4.97;3.20;;;;;;;14.43;nan;99781.34;5005652;28;20084;-49
2023/03/24 08:03:39;;;;;;;6.90;3.35;;;;;;;14.55;nan;99779.41;5000978;28;20032;-53
2023/03/24 08:06:07;;;;;;;7.65;3.80;;;;;;;14.71;nan;99778.06;5002547;28;20504;-53
2023/03/24 08:08:33;;;;;;;7.75;3.80;;;;;;;14.84;nan;99765.38;5001836;28;20052;-52
2023/03/24 08:10:59;;;;;;;6.22;3.60;;;;;;;14.92;nan;99765.50;5006839;28;20044;-52
2023/03/24 08:13:25;;;;;;;5.35;3.50;;;;;;;15.04;nan;99762.72;5006464;28;20425;-51
2023/03/24 08:15:52;;;;;;;5.88;3.22;;;;;;;15.16;nan;99748.31;5006179;28;20033;-51
2023/03/24 08:18:19;;;;;;;5.50;3.85;;;;;;;15.25;nan;99749.28;5004190;28;20068;-50
2023/03/24 08:20:45;;;;;;;8.40;3.58;;;;;;;15.30;nan;99747.03;5004825;28;20049;-55
2023/03/24 08:23:10;;;;;;;5.85;3.13;;;;;;;15.32;nan;99749.53;5007443;28;20057;-52
2023/03/24 08:25:36;;;;;;;8.13;4.18;;;;;;;15.30;nan;99736.41;5009244;28;20030;-52
2023/03/24 08:28:01;;;;;;;6.07;3.85;;;;;;;15.32;nan;99738.94;5008222;28;20026;-52
2023/03/24 08:30:27;;;;;;;7.25;3.60;;;;;;;15.33;nan;99743.25;5004586;28;20030;-54
2023/03/24 08:32:55;;;;;;;8.65;3.40;;;;;;;15.32;nan;99731.81;5009974;28;20639;-52
2023/03/24 08:35:24;;;;;;;6.00;3.25;;;;;;;15.33;nan;99724.72;5003696;28;20037;-51
2023/03/24 08:37:50;;;;;;;10.55;5.10;;;;;;;15.28;nan;99716.34;5001844;28;20030;-52
2023/03/24 08:40:19;;;;;;;7.15;3.65;;;;;;;15.24;nan;99711.34;5005979;28;20037;-52
2023/03/24 08:42:50;;;;;;;8.70;4.88;;;;;;;15.23;nan;99714.97;5004428;28;20110;-52
2023/03/24 08:45:19;;;;;;;5.88;3.60;;;;;;;15.23;nan;99746.75;5005743;28;20388;-54
2023/03/24 08:47:46;;;;;;;5.82;3.13;;;;;;;15.25;nan;99738.69;4998987;28;20038;-52
2023/03/24 08:50:12;;;;;;;7.10;3.65;;;;;;;15.22;nan;99755.69;5006425;28;20069;-53
2023/03/24 08:52:38;;;;;;;7.35;3.88;;;;;;;15.20;nan;99747.03;5006477;28;20022;-54
2023/03/24 08:55:04;;;;;;;8.30;4.63;;;;;;;15.16;nan;99745.69;5009465;28;20032;-54
2023/03/24 08:57:30;;;;;;;4.78;3.30;;;;;;;15.17;nan;99741.19;5011451;28;20559;-53
2023/03/24 08:59:55;;;;;;;7.07;3.72;;;;;;;15.14;nan;99752.06;5006789;28;20033;-55
2023/03/24 09:02:21;;;;;;;6.30;3.63;;;;;;;15.06;nan;99756.28;5010981;28;20037;-54
2023/03/24 09:04:48;;;;;;;5.10;3.28;;;;;;;15.04;nan;99754.78;5016450;28;20064;-53
2023/03/24 09:07:14;;;;;;;6.07;3.80;;;;;;;15.00;nan;99753.38;5009198;28;20029;-53
2023/03/24 09:09:40;;;;;;;5.38;3.50;;;;;;;14.97;nan;99751.00;5000385;28;20564;-53
2023/03/24 09:12:06;;;;;;;9.30;5.32;;;;;;;14.93;nan;99740.69;5006564;28;20030;-52
2023/03/24 09:14:32;;;;;;;5.32;3.55;;;;;;;14.94;nan;99747.66;5004961;28;20037;-55
2023/03/24 09:16:58;;;;;;;5.53;2.88;;;;;;;14.93;nan;99738.03;5006438;28;20042;-56
2023/03/24 09:19:23;;;;;;;6.28;3.30;;;;;;;14.91;nan;99739.16;5003146;28;20037;-52
2023/03/24 09:21:49;;;;;;;8.57;4.05;;;;;;;14.90;nan;99740.97;5007082;28;20038;-54
2023/03/24 09:24:15;;;;;;;5.25;3.60;;;;;;;14.88;nan;99740.28;5009607;28;20149;-52
2023/03/24 09:26:40;;;;;;;6.10;3.55;;;;;;;14.88;nan;99729.69;5008160;28;20503;-51
2023/03/24 09:29:07;;;;;;;4.50;2.00;;;;;;;14.90;nan;99733.00;5006603;28;20473;-52
2023/03/24 09:31:32;;;;;;;4.78;2.88;;;;;;;14.94;nan;99737.06;5012192;28;20044;-53
2023/03/24 09:33:59;;;;;;;4.57;2.83;;;;;;;15.02;nan;99740.81;5009883;28;20026;-53
2023/03/24 09:36:25;;;;;;;4.45;3.40;;;;;;;15.03;nan;99739.84;5004019;28;20018;-54
2023/03/24 09:38:51;;;;;;;4.80;2.80;;;;;;;15.03;nan;99735.38;5006122;28;20069;-51
2023/03/24 09:41:21;;;;;;;8.50;2.72;;;;;;;15.04;nan;99752.13;5004789;28;20065;-51
2023/03/24 09:44:19;;;;;;;5.85;3.20;;;;;;;15.06;nan;99753.63;5008886;28;20061;-51
2023/03/24 09:46:49;;;;;;;4.65;2.95;;;;;;;15.06;nan;99758.94;4998694;28;20038;-51
2023/03/24 09:49:22;;;;;;;6.10;2.92;;;;;;;15.08;nan;99753.47;5005264;28;20489;-52
2023/03/24 09:51:50;;;;;;;5.97;3.42;;;;;;;15.09;nan;99760.47;5010822;28;20018;-53
2023/03/24 09:54:26;;;;;;;6.20;3.08;;;;;;;15.13;nan;99756.56;5004257;28;20511;-51
2023/03/24 09:56:55;;;;;;;6.30;3.20;;;;;;;15.13;nan;99753.91;5001482;28;20044;-51
2023/03/24 09:59:28;;;;;;;8.63;5.43;;;;;;;15.15;nan;99761.69;5003266;28;20096;-51
2023/03/24 10:01:55;;;;;;;6.55;3.60;;;;;;;15.17;nan;99752.66;5004942;28;20018;-52
2023/03/24 10:04:25;;;;;;;6.70;3.50;;;;;;;15.27;nan;99762.38;5005444;28;20523;-52
2023/03/24 10:07:37;;;;;;;6.40;3.03;;;;;;;15.34;nan;99764.31;5009667;28;20041;-53
2023/03/24 10:10:17;;;;;;;7.95;3.28;;;;;;;15.41;nan;99769.06;4996412;28;20148;-51
2023/03/24 10:12:48;;;;;;;5.90;3.10;;;;;;;15.51;nan;99760.06;5003705;28;20018;-51
2023/03/24 10:15:18;;;;;;;7.78;3.08;;;;;;;15.73;nan;99755.38;5002749;28;20025;-53
2023/03/24 10:17:59;;;;;;;5.35;3.03;;;;;;;15.92;nan;99764.28;5001254;28;20026;-52
2023/03/24 10:20:45;;;;;;;6.15;3.10;;;;;;;16.09;nan;99768.78;5004236;28;20441;-53
2023/03/24 10:23:11;;;;;;;6.60;3.17;;;;;;;16.15;nan;99772.66;5008737;28;20084;-52
2023/03/24 10:25:51;;;;;;;4.32;3.03;;;;;;;16.11;nan;99766.81;5009311;28;20025;-51
2023/03/24 10:28:21;;;;;;;5.10;2.75;;;;;;;16.10;nan;99775.78;5002661;28;20027;-52
2023/03/24 10:30:49;;;;;;;6.68;3.65;;;;;;;16.12;nan;99778.28;5008684;28;20227;-51
2023/03/24 10:33:16;;;;;;;6.05;3.33;;;;;;;16.13;nan;99769.31;5005567;28;20024;-52
2023/03/24 10:35:54;;;;;;;5.10;2.95;;;;;;;16.14;nan;99771.81;5009670;28;20492;-52
2023/03/24 10:38:22;;;;;;;7.18;3.22;;;;;;;16.19;nan;99770.53;5005082;28;20037;-52
2023/03/24 10:40:48;;;;;;;6.22;3.05;;;;;;;16.30;nan;99770.31;5008331;28;20034;-52
2023/03/24 10:43:17;;;;;;;5.90;3.10;;;;;;;16.41;nan;99793.19;5000426;28;20037;-52
2023/03/24 10:45:47;;;;;;;6.18;3.30;;;;;;;16.48;nan;99777.47;5000818;28;20100;-52
2023/03/24 10:48:32;;;;;;;5.32;2.65;;;;;;;16.46;nan;99767.03;5004937;28;20025;-53
2023/03/24 10:50:58;;;;;;;4.57;2.85;;;;;;;16.41;nan;99767.44;5001666;28;20049;-53
2023/03/24 10:53:24;;;;;;;6.22;3.08;;;;;;;16.42;nan;99763.81;5003763;28;20022;-51
2023/03/24 10:55:49;;;;;;;9.05;5.15;;;;;;;16.44;nan;99764.50;5001157;28;20081;-51
2023/03/24 10:58:40;;;;;;;4.57;2.75;;;;;;;16.39;nan;99764.13;5003158;28;20036;-51
2023/03/24 11:01:22;;;;;;;7.25;3.10;;;;;;;16.44;nan;99772.47;5003340;28;20168;-52
2023/03/24 11:03:48;;;;;;;3.42;2.20;;;;;;;16.50;nan;99776.34;5006195;28;20026;-51
2023/03/24 11:06:18;;;;;;;4.75;2.30;;;;;;;16.60;nan;99771.81;5000321;28;20037;-52
2023/03/24 11:08:44;;;;;;;5.38;2.67;;;;;;;16.67;nan;99773.84;5005864;28;20045;-54
2023/03/24 11:11:27;;;;;;;6.18;3.05;;;;;;;16.77;nan;99764.00;5004579;28;20038;-51
2023/03/24 11:13:56;;;;;;;3.83;2.00;;;;;;;16.90;nan;99750.28;5006539;28;20493;-51
2023/03/24 11:16:37;;;;;;;4.20;2.17;;;;;;;17.00;nan;99756.41;4999757;28;20501;-54
2023/03/24 11:19:05;;;;;;;5.13;2.05;;;;;;;17.04;nan;99771.03;4997658;28;20571;-51
2023/03/24 11:21:36;;;;;;;3.15;1.77;;;;;;;17.12;nan;99772.91;5000231;28;20033;-52
2023/03/24 11:24:09;;;;;;;4.95;1.95;;;;;;;17.18;nan;99763.47;5004389;28;20424;-52
2023/03/24 11:26:37;;;;;;;4.15;2.22;;;;;;;17.24;nan;99768.19;4998984;28;20374;-51
2023/03/24 11:29:08;;;;;;;3.38;1.65;;;;;;;17.26;nan;99766.22;5004290;28;20171;-53
2023/03/24 11:31:39;;;;;;;4.05;2.10;;;;;;;17.29;nan;99776.53;5002461;28;20037;-51
2023/03/24 11:34:08;;;;;;;5.07;2.40;;;;;;;17.32;nan;99781.50;5000118;28;20037;-52
2023/03/24 11:36:41;;;;;;;4.20;1.85;;;;;;;17.36;nan;99780.22;5005652;28;20480;-53
2023/03/24 11:39:17;;;;;;;2.78;1.65;;;;;;;17.42;nan;99783.25;5005997;28;20041;-53
2023/03/24 11:42:12;;;;;;;3.30;1.60;;;;;;;17.44;nan;99779.44;5003099;28;20042;-55
2023/03/24 11:44:38;;;;;;;4.03;1.70;;;;;;;17.48;nan;99785.28;5004510;28;20030;-52
2023/03/24 11:47:06;;;;;;;5.03;1.50;;;;;;;17.48;nan;99790.59;5001737;28;20120;-53
2023/03/24 11:49:38;;;;;;;2.20;1.42;;;;;;;17.51;nan;99796.44;5001748;28;20038;-52
2023/03/24 11:52:10;;;;;;;2.50;1.70;;;;;;;17.54;nan;99794.47;5009948;28;20026;-51
2023/03/24 11:54:36;;;;;;;4.15;1.90;;;;;;;17.50;nan;99786.81;5007062;28;20061;-54
2023/03/24 11:57:11;;;;;;;6.10;1.55;;;;;;;17.56;nan;99793.31;5002973;28;20073;-52
2023/03/24 11:59:41;;;;;;;2.80;1.50;;;;;;;17.56;nan;99785.34;4997751;28;20041;-52
2023/03/24 12:02:06;;;;;;;3.60;1.52;;;;;;;17.59;nan;99792.16;5003813;28;20030;-53